createdAt,value
2018-07-16T00:01:00.839Z,2.60
2018-07-16T00:03:28.163Z,3.03
2018-07-16T00:05:55.529Z,3.00
2018-07-16T00:08:22.872Z,3.00
2018-07-16T00:10:50.203Z,2.93
2018-07-16T00:13:17.542Z,3.03
2018-07-16T00:15:44.871Z,3.33
2018-07-16T00:18:12.199Z,3.20
2018-07-16T00:20:39.572Z,3.17
2018-07-16T00:23:06.957Z,3.57
2018-07-16T00:25:34.284Z,3.43
2018-07-16T00:28:01.625Z,3.50
2018-07-16T00:30:29.012Z,3.90
2018-07-16T00:32:56.348Z,3.90
2018-07-16T00:35:23.704Z,4.10
2018-07-16T00:37:51.036Z,3.80
2018-07-16T00:40:18.386Z,4.33
2018-07-16T00:42:45.751Z,4.40
2018-07-16T00:45:13.095Z,4.07
2018-07-16T00:47:40.446Z,4.10
2018-07-16T00:50:07.783Z,3.90
2018-07-16T00:52:35.102Z,3.90
2018-07-16T00:55:03.443Z,3.43
2018-07-16T00:57:30.857Z,4.40
2018-07-16T00:59:58.187Z,3.47
2018-07-16T01:02:26.703Z,4.07
2018-07-16T01:04:54.047Z,3.80
2018-07-16T01:07:21.376Z,3.60
2018-07-16T01:09:49.427Z,3.83
2018-07-16T01:12:16.771Z,4.33
2018-07-16T01:14:44.105Z,4.63
2018-07-16T01:17:11.636Z,4.40
2018-07-16T01:19:38.982Z,4.70
2018-07-16T01:22:06.323Z,4.33
2018-07-16T01:24:33.672Z,4.67
2018-07-16T01:27:01.016Z,4.47
2018-07-16T01:29:28.359Z,4.03
2018-07-16T01:31:55.747Z,4.40
2018-07-16T01:34:23.099Z,4.13
2018-07-16T01:36:50.431Z,4.20
2018-07-16T01:39:17.752Z,4.00
2018-07-16T01:41:45.099Z,4.50
2018-07-16T01:44:12.463Z,4.27
2018-07-16T01:46:39.802Z,4.53
2018-07-16T01:49:07.142Z,4.50
2018-07-16T01:51:34.488Z,4.07
2018-07-16T01:54:01.807Z,4.30
2018-07-16T01:56:29.145Z,4.40
2018-07-16T01:58:56.479Z,4.60
2018-07-16T02:01:23.827Z,4.53
2018-07-16T02:03:51.188Z,4.47
2018-07-16T02:06:18.539Z,4.60
2018-07-16T02:08:46.722Z,4.67
2018-07-16T02:11:14.071Z,4.80
2018-07-16T02:13:41.447Z,4.73
2018-07-16T02:16:08.777Z,4.73
2018-07-16T02:18:36.128Z,4.40
2018-07-16T02:21:03.526Z,4.87
2018-07-16T02:23:30.856Z,4.70
2018-07-16T02:25:58.186Z,4.87
2018-07-16T02:28:25.510Z,4.60
2018-07-16T02:30:52.851Z,4.60
2018-07-16T02:33:20.189Z,4.03
2018-07-16T02:35:47.556Z,4.50
2018-07-16T02:38:14.908Z,4.57
2018-07-16T02:40:42.263Z,4.37
2018-07-16T02:43:09.604Z,4.50
2018-07-16T02:45:36.932Z,4.70
2018-07-16T02:48:04.411Z,4.30
2018-07-16T02:50:31.753Z,5.03
2018-07-16T02:52:59.078Z,4.63
2018-07-16T02:55:26.439Z,4.20
2018-07-16T02:57:53.772Z,5.10
2018-07-16T03:00:21.105Z,4.43
2018-07-16T03:02:48.463Z,4.37
2018-07-16T03:05:17.669Z,4.53
2018-07-16T03:07:45.891Z,4.67
2018-07-16T03:10:13.356Z,4.30
2018-07-16T03:12:40.871Z,4.07
2018-07-16T03:15:08.205Z,4.60
2018-07-16T03:17:35.591Z,4.30
2018-07-16T03:20:03.063Z,4.03
2018-07-16T03:22:30.431Z,4.60
2018-07-16T03:24:57.788Z,4.83
2018-07-16T03:27:25.144Z,4.27
2018-07-16T03:29:52.503Z,3.97
2018-07-16T03:32:19.860Z,4.43
2018-07-16T03:34:47.423Z,4.43
2018-07-16T03:37:14.772Z,4.33
2018-07-16T03:39:42.435Z,4.50
2018-07-16T03:42:09.796Z,5.00
2018-07-16T03:44:37.139Z,4.47
2018-07-16T03:47:04.592Z,5.07
2018-07-16T03:49:31.911Z,4.57
2018-07-16T03:51:59.242Z,4.37
2018-07-16T03:54:26.658Z,4.53
2018-07-16T03:56:53.971Z,4.87
2018-07-16T03:59:21.309Z,4.87
2018-07-16T04:01:48.659Z,5.30
2018-07-16T04:04:16.000Z,4.93
2018-07-16T04:06:43.327Z,4.87
2018-07-16T04:09:10.677Z,5.13
2018-07-16T04:11:38.052Z,4.57
2018-07-16T04:14:05.471Z,5.17
2018-07-16T04:16:32.823Z,5.30
2018-07-16T04:19:00.163Z,5.00
2018-07-16T04:21:27.495Z,4.90
2018-07-16T04:23:56.060Z,4.70
2018-07-16T04:26:23.402Z,5.60
2018-07-16T04:28:50.727Z,4.90
2018-07-16T04:31:18.454Z,5.20
2018-07-16T04:33:45.811Z,4.43
2018-07-16T04:36:13.154Z,4.80
2018-07-16T04:38:40.475Z,5.50
2018-07-16T04:41:07.806Z,5.33
2018-07-16T04:43:35.142Z,5.53
2018-07-16T04:46:02.497Z,5.63
2018-07-16T04:48:29.846Z,5.03
2018-07-16T04:50:57.202Z,5.50
2018-07-16T04:53:24.534Z,5.23
2018-07-16T04:55:51.877Z,5.40
2018-07-16T04:58:19.223Z,5.27
2018-07-16T05:00:46.580Z,5.17
2018-07-16T05:03:13.985Z,4.80
2018-07-16T05:05:41.346Z,5.70
2018-07-16T05:08:08.712Z,5.83
2018-07-16T05:10:36.066Z,5.80
2018-07-16T05:13:03.412Z,5.63
2018-07-16T05:15:30.756Z,6.60
2018-07-16T05:17:58.213Z,5.73
2018-07-16T05:20:25.579Z,5.50
2018-07-16T05:22:53.032Z,5.83
2018-07-16T05:25:20.354Z,6.53
2018-07-16T05:27:47.730Z,5.30
2018-07-16T05:30:15.090Z,5.83
2018-07-16T05:32:42.679Z,5.70
2018-07-16T05:35:09.824Z,5.80
2018-07-16T05:37:37.188Z,5.77
2018-07-16T05:40:04.668Z,5.50
2018-07-16T05:42:32.057Z,5.70
2018-07-16T05:44:59.399Z,5.60
2018-07-16T05:47:26.754Z,5.77
2018-07-16T05:49:54.109Z,6.30
2018-07-16T05:52:22.833Z,6.10
2018-07-16T05:54:50.168Z,5.77
2018-07-16T05:57:17.531Z,6.17
2018-07-16T05:59:44.872Z,5.67
2018-07-16T06:02:12.230Z,6.20
2018-07-16T06:04:39.588Z,6.20
2018-07-16T06:07:06.930Z,5.60
2018-07-16T06:09:34.268Z,5.83
2018-07-16T06:12:01.628Z,6.27
2018-07-16T06:14:28.977Z,5.53
2018-07-16T06:16:56.467Z,6.50
2018-07-16T06:19:23.776Z,5.40
2018-07-16T06:21:51.323Z,6.13
2018-07-16T06:24:18.660Z,6.00
2018-07-16T06:26:46.004Z,6.17
2018-07-16T06:29:13.345Z,5.90
2018-07-16T06:31:40.687Z,7.23
2018-07-16T06:34:08.032Z,5.23
2018-07-16T06:36:35.369Z,5.70
2018-07-16T06:39:03.748Z,5.90
2018-07-16T06:41:31.654Z,5.47
2018-07-16T06:43:58.491Z,5.17
2018-07-16T06:46:27.126Z,4.87
2018-07-16T06:48:54.474Z,5.60
2018-07-16T06:51:21.844Z,5.40
2018-07-16T06:53:53.213Z,5.43
2018-07-16T06:56:20.571Z,5.27
2018-07-16T06:58:48.040Z,4.87
2018-07-16T07:01:15.423Z,4.83
2018-07-16T07:03:42.800Z,4.37
2018-07-16T07:06:10.160Z,4.80
2018-07-16T07:08:37.531Z,4.10
2018-07-16T07:11:04.856Z,4.33
2018-07-16T07:13:32.181Z,3.80
2018-07-16T07:15:59.531Z,3.70
2018-07-16T07:18:26.870Z,3.43
2018-07-16T07:20:54.424Z,3.00
2018-07-16T07:23:21.762Z,3.40
2018-07-16T07:25:49.101Z,2.73
2018-07-16T07:28:16.449Z,2.30
2018-07-16T07:30:43.795Z,2.70
2018-07-16T07:33:11.141Z,2.40
2018-07-16T07:35:38.570Z,1.97
2018-07-16T07:38:05.837Z,2.57
2018-07-16T07:40:33.208Z,2.33
2018-07-16T07:43:00.542Z,2.30
2018-07-16T07:45:27.898Z,1.80
2018-07-16T07:47:55.248Z,2.40
2018-07-16T07:50:22.612Z,2.30
2018-07-16T07:52:49.959Z,2.17
2018-07-16T07:55:17.821Z,1.83
2018-07-16T07:57:44.691Z,2.20
2018-07-16T08:00:12.023Z,2.23
2018-07-16T08:02:39.395Z,2.47
2018-07-16T08:05:06.763Z,1.87
2018-07-16T08:07:34.123Z,1.90
2018-07-16T08:10:01.571Z,1.70
2018-07-16T08:12:28.960Z,2.20
2018-07-16T08:14:56.294Z,2.20
2018-07-16T08:17:23.643Z,1.77
2018-07-16T08:19:50.996Z,2.23
2018-07-16T08:22:18.341Z,2.10
2018-07-16T08:24:45.762Z,2.20
2018-07-16T08:27:13.135Z,2.03
2018-07-16T08:29:40.487Z,2.17
2018-07-16T08:32:07.899Z,2.10
2018-07-16T08:34:35.573Z,1.90
2018-07-16T08:37:02.918Z,1.60
2018-07-16T08:39:30.303Z,2.13
2018-07-16T08:41:57.648Z,2.20
2018-07-16T08:44:25.002Z,1.77
2018-07-16T08:46:52.354Z,1.80
2018-07-16T08:49:19.700Z,2.10
2018-07-16T08:51:47.055Z,1.70
2018-07-16T08:54:14.432Z,1.77
2018-07-16T08:56:41.785Z,1.60
2018-07-16T08:59:09.136Z,1.50
2018-07-16T09:01:36.531Z,1.50
2018-07-16T09:04:03.930Z,1.50
2018-07-16T09:06:31.259Z,1.47
2018-07-16T09:08:58.680Z,1.50
2018-07-16T09:11:26.027Z,1.40
2018-07-16T09:13:53.372Z,1.70
2018-07-16T09:16:20.716Z,1.53
2018-07-16T09:18:48.066Z,1.40
2018-07-16T09:21:15.414Z,1.23
2018-07-16T09:23:42.798Z,1.40
2018-07-16T09:26:10.168Z,1.40
2018-07-16T09:28:37.528Z,1.57
2018-07-16T09:31:04.871Z,1.27
2018-07-16T09:33:32.227Z,1.60
2018-07-16T09:35:59.587Z,1.20
2018-07-16T09:38:26.971Z,1.50
2018-07-16T09:40:54.396Z,2.00
2018-07-16T09:43:21.731Z,1.60
2018-07-16T09:45:49.063Z,1.83
2018-07-16T09:48:16.408Z,1.43
2018-07-16T09:50:43.737Z,1.50
2018-07-16T09:53:11.299Z,1.40
2018-07-16T09:55:38.644Z,1.50
2018-07-16T09:58:05.984Z,1.20
2018-07-16T10:00:42.963Z,1.47
2018-07-16T10:03:10.321Z,1.23
2018-07-16T10:05:37.656Z,1.53
2018-07-16T10:08:05.230Z,1.43
2018-07-16T10:10:32.592Z,1.43
2018-07-16T10:12:59.952Z,2.17
2018-07-16T10:15:27.307Z,1.20
2018-07-16T10:17:54.663Z,1.20
2018-07-16T10:20:22.055Z,1.30
2018-07-16T10:22:49.391Z,1.50
2018-07-16T10:25:16.731Z,1.40
2018-07-16T10:27:44.090Z,1.57
2018-07-16T10:30:11.468Z,1.37
2018-07-16T10:32:38.820Z,1.33
2018-07-16T10:35:06.209Z,1.40
2018-07-16T10:37:33.571Z,1.30
2018-07-16T10:40:00.960Z,1.03
2018-07-16T10:42:28.294Z,1.20
2018-07-16T10:44:55.622Z,1.20
2018-07-16T10:47:23.144Z,1.40
2018-07-16T10:49:50.587Z,1.40
2018-07-16T10:52:17.838Z,1.57
2018-07-16T10:54:45.647Z,1.50
2018-07-16T10:57:13.140Z,1.80
2018-07-16T10:59:40.594Z,1.90
2018-07-16T11:02:07.948Z,1.73
2018-07-16T11:04:35.319Z,1.57
2018-07-16T11:07:02.703Z,1.80
2018-07-16T11:09:30.103Z,1.80
2018-07-16T11:11:57.460Z,1.87
2018-07-16T11:14:24.816Z,1.63
2018-07-16T11:16:52.183Z,1.70
2018-07-16T11:19:19.571Z,1.93
2018-07-16T11:21:47.009Z,2.00
2018-07-16T11:24:14.421Z,1.73
2018-07-16T11:26:41.787Z,1.80
2018-07-16T11:29:09.114Z,1.90
2018-07-16T11:31:36.447Z,1.70
2018-07-16T11:34:03.802Z,1.80
2018-07-16T11:36:31.173Z,2.10
2018-07-16T11:38:58.563Z,2.10
2018-07-16T11:41:25.932Z,1.87
2018-07-16T11:43:53.302Z,2.00
2018-07-16T11:46:20.660Z,2.00
2018-07-16T11:48:48.037Z,2.30
2018-07-16T11:51:15.487Z,2.13
2018-07-16T11:53:42.857Z,1.87
2018-07-16T11:56:10.212Z,1.80
2018-07-16T11:58:37.552Z,1.90
2018-07-16T12:01:04.912Z,2.20
2018-07-16T12:03:32.342Z,1.93
2018-07-16T12:05:59.612Z,2.37
2018-07-16T12:08:26.955Z,2.60
2018-07-16T12:10:54.456Z,2.20
2018-07-16T12:13:21.894Z,2.20
2018-07-16T12:15:49.227Z,2.33
2018-07-16T12:18:16.581Z,1.90
2018-07-16T12:20:43.924Z,2.37
2018-07-16T12:23:11.311Z,2.50
2018-07-16T12:25:38.648Z,2.90
2018-07-16T12:28:06.407Z,2.10
2018-07-16T12:30:33.836Z,1.90
2018-07-16T12:33:01.186Z,2.53
2018-07-16T12:35:28.546Z,2.23
2018-07-16T12:37:55.906Z,2.03
2018-07-16T12:40:23.260Z,2.10
2018-07-16T12:42:50.627Z,2.10
2018-07-16T12:45:18.036Z,2.37
2018-07-16T12:47:45.395Z,1.90
2018-07-16T12:50:12.752Z,2.37
2018-07-16T12:52:40.096Z,1.80
2018-07-16T12:55:07.443Z,1.70
2018-07-16T12:57:34.820Z,1.80
2018-07-16T13:00:02.175Z,1.70
2018-07-16T13:02:29.531Z,2.10
2018-07-16T13:04:56.923Z,2.07
2018-07-16T13:07:24.283Z,2.03
2018-07-16T13:09:51.649Z,2.60
2018-07-16T13:12:19.019Z,2.03
2018-07-16T13:14:46.490Z,3.07
2018-07-16T13:17:13.839Z,2.30
2018-07-16T13:19:41.188Z,2.30
2018-07-16T13:22:08.560Z,2.87
2018-07-16T13:24:35.942Z,1.90
2018-07-16T13:27:03.358Z,2.80
2018-07-16T13:29:31.175Z,3.23
2018-07-16T13:31:58.584Z,3.23
2018-07-16T13:34:26.019Z,2.50
2018-07-16T13:36:53.409Z,2.20
2018-07-16T13:39:20.809Z,2.90
2018-07-16T13:42:03.045Z,2.97
2018-07-16T13:44:30.391Z,3.40
2018-07-16T13:46:57.741Z,2.60
2018-07-16T13:49:25.079Z,3.27
2018-07-16T13:51:52.435Z,2.60
2018-07-16T13:54:19.796Z,2.47
2018-07-16T13:56:47.187Z,2.90
2018-07-16T13:59:14.561Z,2.67
2018-07-16T14:01:41.942Z,3.47
2018-07-16T14:04:09.311Z,3.10
2018-07-16T14:06:36.648Z,3.07
2018-07-16T14:09:06.165Z,3.07
2018-07-16T14:11:33.524Z,3.10
2018-07-16T14:14:00.854Z,2.90
2018-07-16T14:16:28.192Z,3.10
2018-07-16T14:18:55.543Z,3.03
2018-07-16T14:21:22.911Z,2.73
2018-07-16T14:23:50.252Z,2.77
2018-07-16T14:26:17.589Z,2.60
2018-07-16T14:28:44.927Z,2.83
2018-07-16T14:31:12.282Z,2.80
2018-07-16T14:33:39.656Z,3.20
2018-07-16T14:36:07.031Z,3.10
2018-07-16T14:38:34.375Z,2.83
2018-07-16T14:41:01.719Z,2.70
2018-07-16T14:43:29.102Z,3.67
2018-07-16T14:45:57.418Z,3.87
2018-07-16T14:48:24.755Z,3.17
2018-07-16T14:50:52.151Z,3.00
2018-07-16T14:53:19.589Z,2.80
2018-07-16T14:55:46.947Z,2.90
2018-07-16T14:58:14.340Z,2.80
2018-07-16T15:00:41.804Z,2.67
2018-07-16T15:03:09.183Z,2.57
2018-07-16T15:05:36.547Z,2.70
2018-07-16T15:08:03.925Z,2.50
2018-07-16T15:10:31.267Z,2.60
2018-07-16T15:12:58.614Z,2.43
2018-07-16T15:15:25.985Z,2.70
2018-07-16T15:17:53.372Z,2.67
2018-07-16T15:20:20.877Z,3.53
2018-07-16T15:22:48.232Z,2.63
2018-07-16T15:25:15.847Z,2.70
2018-07-16T15:27:43.222Z,2.43
2018-07-16T15:30:10.572Z,2.70
2018-07-16T15:32:37.942Z,2.30
2018-07-16T15:35:05.303Z,2.20
2018-07-16T15:37:32.712Z,2.50
2018-07-16T15:40:00.126Z,2.80
2018-07-16T15:42:27.425Z,2.33
2018-07-16T15:44:54.803Z,2.40
2018-07-16T15:47:22.257Z,2.50
2018-07-16T15:49:49.658Z,2.97
2018-07-16T15:52:17.072Z,2.97
2018-07-16T15:54:44.669Z,2.97
2018-07-16T15:57:12.236Z,2.37
2018-07-16T15:59:39.595Z,2.47
2018-07-16T16:02:06.959Z,2.77
2018-07-16T16:04:34.311Z,2.40
2018-07-16T16:07:01.911Z,2.50
2018-07-16T16:09:29.268Z,2.50
2018-07-16T16:11:56.616Z,2.27
2018-07-16T16:14:24.005Z,2.47
2018-07-16T16:16:51.361Z,3.20
2018-07-16T16:19:18.727Z,2.60
2018-07-16T16:21:46.203Z,3.00
2018-07-16T16:24:13.667Z,2.80
2018-07-16T16:26:41.022Z,4.20
2018-07-16T16:29:08.772Z,2.63
2018-07-16T16:31:36.835Z,2.87
2018-07-16T16:34:04.200Z,2.90
2018-07-16T16:36:31.583Z,2.67
2018-07-16T16:38:58.901Z,2.90
2018-07-16T16:41:26.252Z,3.17
2018-07-16T16:43:53.588Z,3.20
2018-07-16T16:46:21.009Z,2.93
2018-07-16T16:48:48.435Z,2.47
2018-07-16T16:51:15.780Z,2.50
2018-07-16T16:53:43.206Z,2.60
2018-07-16T16:56:10.578Z,3.43
2018-07-16T16:58:37.939Z,2.70
2018-07-16T17:01:05.328Z,3.10
2018-07-16T17:03:32.670Z,2.87
2018-07-16T17:06:00.036Z,2.67
2018-07-16T17:08:27.398Z,2.70
2018-07-16T17:10:54.852Z,3.03
2018-07-16T17:13:22.200Z,3.37
2018-07-16T17:15:49.539Z,3.40
2018-07-16T17:18:16.871Z,2.83
2018-07-16T17:20:44.243Z,2.80
2018-07-16T17:23:11.632Z,2.53
2018-07-16T17:25:38.987Z,2.27
2018-07-16T17:28:06.471Z,2.50
2018-07-16T17:30:33.830Z,2.87
2018-07-16T17:33:01.210Z,2.73
2018-07-16T17:35:28.608Z,2.83
2018-07-16T17:37:55.976Z,2.50
2018-07-16T17:40:23.407Z,2.90
2018-07-16T17:42:50.828Z,2.33
2018-07-16T17:45:18.150Z,2.40
2018-07-16T17:47:45.511Z,2.60
2018-07-16T17:50:12.867Z,2.53
2018-07-16T17:52:40.228Z,2.67
2018-07-16T17:55:07.579Z,2.47
2018-07-16T17:57:34.950Z,2.30
2018-07-16T18:00:02.340Z,2.40
2018-07-16T18:02:30.624Z,2.43
2018-07-16T18:04:58.235Z,2.30
2018-07-16T18:07:25.583Z,2.13
2018-07-16T18:09:53.017Z,2.20
2018-07-16T18:12:20.907Z,2.30
2018-07-16T18:14:48.263Z,2.10
2018-07-16T18:17:15.626Z,2.30
2018-07-16T18:19:43.171Z,2.20
2018-07-16T18:22:10.538Z,2.20
2018-07-16T18:24:37.935Z,2.53
2018-07-16T18:27:05.335Z,2.23
2018-07-16T18:29:32.721Z,3.23
2018-07-16T18:32:01.057Z,2.50
2018-07-16T18:34:28.484Z,2.30
2018-07-16T18:36:55.839Z,2.43
2018-07-16T18:39:23.177Z,2.50
2018-07-16T18:41:50.553Z,2.60
2018-07-16T18:44:17.897Z,2.77
2018-07-16T18:46:45.311Z,2.13
2018-07-16T18:49:12.839Z,2.30
2018-07-16T18:51:40.179Z,2.30
2018-07-16T18:54:07.557Z,2.30
2018-07-16T18:56:34.928Z,2.37
2018-07-16T18:59:02.351Z,2.40
2018-07-16T19:01:29.752Z,2.60
2018-07-16T19:03:57.140Z,2.57
2018-07-16T19:06:24.543Z,2.93
2018-07-16T19:08:51.884Z,2.50
2018-07-16T19:11:19.246Z,2.27
2018-07-16T19:13:46.611Z,2.30
2018-07-16T19:16:13.996Z,2.50
2018-07-16T19:18:41.356Z,2.40
2018-07-16T19:21:08.728Z,2.27
2018-07-16T19:23:36.090Z,2.43
2018-07-16T19:26:03.434Z,2.63
2018-07-16T19:28:30.816Z,2.83
2018-07-16T19:30:58.184Z,2.73
2018-07-16T19:33:25.553Z,2.90
2018-07-16T19:35:52.905Z,2.67
2018-07-16T19:38:20.311Z,2.70
2018-07-16T19:40:47.659Z,2.70
2018-07-16T19:43:15.039Z,2.60
2018-07-16T19:45:42.407Z,2.90
2018-07-16T19:48:09.759Z,2.70
2018-07-16T19:50:37.119Z,2.60
2018-07-16T19:53:04.780Z,2.50
2018-07-16T19:55:32.140Z,2.73
2018-07-16T19:57:59.556Z,2.63
2018-07-16T20:00:26.989Z,3.67
2018-07-16T20:02:54.382Z,3.60
2018-07-16T20:05:21.672Z,3.77
2018-07-16T20:07:48.996Z,4.20
2018-07-16T20:10:16.348Z,3.67
2018-07-16T20:12:43.724Z,3.80
2018-07-16T20:15:16.297Z,3.87
2018-07-16T20:17:43.661Z,3.50
2018-07-16T20:20:11.041Z,3.27
2018-07-16T20:22:38.415Z,3.43
2018-07-16T20:25:06.471Z,3.13
2018-07-16T20:27:33.843Z,3.43
2018-07-16T20:30:01.176Z,2.87
2018-07-16T20:32:28.610Z,3.07
2018-07-16T20:34:55.932Z,2.90
2018-07-16T20:37:23.309Z,3.77
2018-07-16T20:39:50.675Z,3.13
2018-07-16T20:42:18.086Z,3.20
2018-07-16T20:44:45.596Z,2.87
2018-07-16T20:47:13.037Z,3.17
2018-07-16T20:49:40.424Z,3.10
2018-07-16T20:52:08.209Z,2.80
2018-07-16T20:54:35.607Z,3.63
2018-07-16T20:57:02.972Z,3.30
2018-07-16T20:59:30.375Z,3.40
2018-07-16T21:01:57.859Z,3.57
2018-07-16T21:04:25.398Z,3.63
2018-07-16T21:06:53.467Z,3.87
2018-07-16T21:09:20.854Z,3.90
2018-07-16T21:11:48.190Z,4.43
2018-07-16T21:14:15.566Z,4.20
2018-07-16T21:16:43.019Z,4.47
2018-07-16T21:19:10.272Z,3.83
2018-07-16T21:21:37.626Z,4.60
2018-07-16T21:24:05.049Z,4.20
2018-07-16T21:26:32.414Z,4.00
2018-07-16T21:28:59.772Z,4.30
2018-07-16T21:31:27.227Z,4.03
2018-07-16T21:33:54.673Z,3.90
2018-07-16T21:36:22.029Z,3.90
2018-07-16T21:38:49.391Z,4.83
2018-07-16T21:41:16.747Z,4.80
2018-07-16T21:43:44.122Z,4.40
2018-07-16T21:46:11.480Z,4.70
2018-07-16T21:48:38.877Z,4.70
2018-07-16T21:51:06.492Z,4.80
2018-07-16T21:53:33.835Z,5.20
2018-07-16T21:56:01.176Z,5.00
2018-07-16T21:58:28.555Z,5.30
2018-07-16T22:00:55.924Z,4.93
2018-07-16T22:03:23.271Z,5.13
2018-07-16T22:05:50.629Z,4.07
2018-07-16T22:08:17.985Z,4.40
2018-07-16T22:10:45.357Z,4.30
2018-07-16T22:13:12.705Z,3.70
2018-07-16T22:15:40.034Z,3.40
2018-07-16T22:18:07.385Z,3.00
2018-07-16T22:20:34.749Z,2.73
2018-07-16T22:23:02.110Z,2.90
2018-07-16T22:25:29.458Z,2.67
2018-07-16T22:27:56.812Z,2.60
2018-07-16T22:30:24.161Z,2.50
2018-07-16T22:32:51.508Z,2.80
2018-07-16T22:35:18.879Z,2.60
2018-07-16T22:37:46.252Z,2.40
2018-07-16T22:40:13.604Z,2.57
2018-07-16T22:42:40.978Z,2.80
2018-07-16T22:45:08.639Z,2.63
2018-07-16T22:47:36.058Z,2.50
2018-07-16T22:50:03.791Z,2.50
2018-07-16T22:52:31.170Z,2.40
2018-07-16T22:54:58.551Z,2.37
2018-07-16T22:57:26.232Z,2.40
2018-07-16T22:59:53.579Z,2.33
2018-07-16T23:02:20.920Z,2.70
2018-07-16T23:04:48.251Z,2.60
2018-07-16T23:07:15.604Z,2.60
2018-07-16T23:09:42.982Z,2.70
2018-07-16T23:12:10.332Z,2.70
2018-07-16T23:14:37.689Z,2.63
2018-07-16T23:17:05.070Z,2.40
2018-07-16T23:19:32.447Z,2.70
2018-07-16T23:21:59.799Z,2.40
2018-07-16T23:24:27.159Z,3.27
2018-07-16T23:26:54.558Z,2.90
2018-07-16T23:29:21.923Z,3.10
2018-07-16T23:31:49.288Z,2.70
2018-07-16T23:34:16.652Z,2.90
2018-07-16T23:36:43.981Z,3.10
2018-07-16T23:39:12.426Z,2.80
2018-07-16T23:41:40.079Z,3.20
2018-07-16T23:44:07.420Z,3.33
2018-07-16T23:46:34.789Z,3.77
2018-07-16T23:49:02.180Z,3.70
2018-07-16T23:51:29.550Z,3.40
2018-07-16T23:53:56.887Z,3.70
2018-07-16T23:56:24.231Z,3.43
2018-07-16T23:58:51.721Z,3.37
